createdAt,value
2018-04-30T17:07:53.586Z,747.55
2018-04-30T17:10:20.864Z,145.93
2018-04-30T17:12:47.048Z,725.62
2018-04-30T17:15:13.945Z,549.95
2018-04-30T17:17:41.143Z,546.72
2018-04-30T17:20:07.548Z,546.70
2018-04-30T17:22:34.867Z,1014.37
2018-04-30T17:25:01.789Z,1061.82
2018-04-30T17:27:28.004Z,1029.10
2018-04-30T17:29:54.721Z,1001.20
2018-04-30T17:32:22.149Z,982.72
2018-04-30T17:34:48.353Z,1016.15
2018-04-30T17:37:15.150Z,954.20
2018-04-30T17:42:08.216Z,2.08
2018-04-30T17:44:35.186Z,2.20
2018-04-30T17:47:02.097Z,1.70
2018-04-30T17:49:28.262Z,1.63
2018-04-30T17:51:54.473Z,1.20
2018-04-30T17:54:20.652Z,1.80
2018-04-30T17:56:47.454Z,3.97
2018-04-30T17:59:14.161Z,5.43
2018-04-30T18:01:41.224Z,3.40
2018-04-30T18:04:07.613Z,2.13
2018-04-30T18:06:34.606Z,1.97
2018-04-30T18:09:00.833Z,2.03
2018-04-30T18:11:27.674Z,6.90
2018-04-30T18:13:54.860Z,4.23
2018-04-30T18:16:21.179Z,4.73
2018-04-30T18:18:47.670Z,4.10
2018-04-30T18:21:15.133Z,2.30
2018-04-30T18:23:42.101Z,2.83
2018-04-30T18:26:08.324Z,4.50
2018-04-30T18:28:34.541Z,2.70
2018-04-30T18:31:01.160Z,2.90
2018-04-30T18:33:28.703Z,3.60
2018-04-30T18:35:55.794Z,5.37
2018-04-30T18:38:22.031Z,3.10
2018-04-30T18:40:48.391Z,3.87
2018-04-30T18:43:14.900Z,4.10
2018-04-30T18:45:41.191Z,7.53
2018-04-30T18:48:08.272Z,5.83
2018-04-30T18:50:34.837Z,3.47
2018-04-30T18:53:01.493Z,3.87
2018-04-30T18:55:28.627Z,3.40
2018-04-30T18:57:54.863Z,3.17
2018-04-30T19:00:21.082Z,3.53
2018-04-30T19:02:47.546Z,2.07
2018-04-30T19:05:15.466Z,2.73
2018-04-30T19:07:42.023Z,3.20
2018-04-30T19:10:08.399Z,6.00
2018-04-30T19:12:34.684Z,14.07
2018-04-30T19:15:01.427Z,11.30
2018-04-30T19:17:28.427Z,5.83
2018-04-30T19:19:55.259Z,4.60
2018-04-30T19:22:21.492Z,6.90
2018-04-30T19:24:48.244Z,9.10
2018-04-30T19:27:14.474Z,7.53
2018-04-30T19:29:41.176Z,5.40
2018-04-30T19:32:08.702Z,5.17
2018-04-30T19:34:36.345Z,4.13
2018-04-30T19:37:03.745Z,3.67
2018-04-30T19:39:30.176Z,4.33
2018-04-30T19:41:57.049Z,6.40
2018-04-30T19:44:23.507Z,5.77
2018-04-30T19:46:50.748Z,5.40
2018-04-30T19:49:16.979Z,4.73
2018-04-30T19:51:43.876Z,4.47
2018-04-30T19:54:11.860Z,5.90
2018-04-30T19:56:38.342Z,6.50
2018-04-30T19:59:06.045Z,7.03
2018-04-30T20:01:33.016Z,5.47
2018-04-30T20:04:00.068Z,4.00
2018-04-30T20:06:26.706Z,3.20
2018-04-30T20:08:54.884Z,3.00
2018-04-30T20:11:21.353Z,2.70
2018-04-30T20:13:48.675Z,3.27
2018-04-30T20:16:15.339Z,3.70
2018-04-30T20:18:42.906Z,3.00
2018-04-30T20:21:09.113Z,3.57
2018-04-30T20:23:35.364Z,3.97
2018-04-30T20:26:02.547Z,3.50
2018-04-30T20:28:29.486Z,3.80
2018-04-30T20:30:57.116Z,4.33
2018-04-30T20:33:23.913Z,3.17
2018-04-30T20:35:50.776Z,3.07
2018-04-30T20:38:18.369Z,2.70
2018-04-30T20:40:44.590Z,3.10
2018-04-30T20:43:10.775Z,2.13
2018-04-30T20:45:37.688Z,2.27
2018-04-30T20:48:05.215Z,5.27
2018-04-30T20:50:31.997Z,2.90
2018-04-30T20:52:58.442Z,2.60
2018-04-30T20:55:24.674Z,4.93
2018-04-30T20:57:51.484Z,4.37
2018-04-30T21:00:17.694Z,3.40
2018-04-30T21:02:44.521Z,3.40
2018-04-30T21:05:12.286Z,3.30
2018-04-30T21:07:38.565Z,4.40
2018-04-30T21:10:07.020Z,3.57
2018-04-30T21:12:34.199Z,3.40
2018-04-30T21:15:01.576Z,2.87
2018-04-30T21:17:28.922Z,2.67
2018-04-30T21:19:56.416Z,3.13
2018-04-30T21:22:23.207Z,3.20
2018-04-30T21:24:49.979Z,3.30
2018-04-30T21:27:17.752Z,3.07
2018-04-30T21:29:44.288Z,3.77
2018-04-30T21:32:11.663Z,4.83
2018-04-30T21:34:38.677Z,3.30
2018-04-30T21:37:06.611Z,3.83
2018-04-30T21:39:34.104Z,3.30
2018-04-30T21:42:01.322Z,2.90
2018-04-30T21:44:29.118Z,3.10
2018-04-30T21:46:56.547Z,2.40
2018-04-30T21:49:23.177Z,2.87
2018-04-30T21:51:50.665Z,3.17
2018-04-30T21:54:16.885Z,2.90
2018-04-30T21:56:43.656Z,3.25
2018-04-30T21:59:10.393Z,2.93
2018-04-30T22:01:36.605Z,2.37
2018-04-30T22:04:04.204Z,2.85
2018-04-30T22:06:30.944Z,2.50
2018-04-30T22:08:57.686Z,3.03
2018-04-30T22:11:25.205Z,2.95
2018-04-30T22:13:52.738Z,2.47
2018-04-30T22:16:20.194Z,2.93
2018-04-30T22:18:47.781Z,4.63
2018-04-30T22:21:14.068Z,4.63
2018-04-30T22:23:41.011Z,2.80
2018-04-30T22:26:08.584Z,3.00
2018-04-30T22:28:34.808Z,7.93
2018-04-30T22:31:01.669Z,3.97
2018-04-30T22:33:27.877Z,4.40
2018-04-30T22:35:54.236Z,4.10
2018-04-30T22:38:21.795Z,4.20
2018-04-30T22:40:48.513Z,4.30
2018-04-30T22:43:15.489Z,3.93
2018-04-30T22:45:42.012Z,4.07
2018-04-30T22:48:08.830Z,2.93
2018-04-30T22:50:36.500Z,3.23
2018-04-30T22:53:02.901Z,3.33
2018-04-30T22:55:30.580Z,3.67
2018-04-30T22:57:57.934Z,3.00
2018-04-30T23:00:25.952Z,3.40
2018-04-30T23:02:52.168Z,3.10
2018-04-30T23:05:20.262Z,5.00
2018-04-30T23:07:47.260Z,2.73
2018-04-30T23:10:14.997Z,2.80
2018-04-30T23:12:42.041Z,2.50
2018-04-30T23:15:09.582Z,3.00
2018-04-30T23:17:36.399Z,2.77
2018-04-30T23:20:02.815Z,2.40
2018-04-30T23:22:39.672Z,2.93
2018-04-30T23:25:07.030Z,2.70
2018-04-30T23:27:34.040Z,2.67
2018-04-30T23:30:00.907Z,2.40
2018-04-30T23:32:28.065Z,2.20
2018-04-30T23:34:55.362Z,2.17
2018-04-30T23:37:23.039Z,2.23
2018-04-30T23:39:49.572Z,2.53
2018-04-30T23:42:18.172Z,2.87
2018-04-30T23:44:45.990Z,1.90
2018-04-30T23:47:12.731Z,2.60
2018-04-30T23:49:39.477Z,2.10
2018-04-30T23:52:05.701Z,3.03
2018-04-30T23:54:32.908Z,2.73
2018-04-30T23:56:59.879Z,2.90
2018-04-30T23:59:26.064Z,3.20
